Time,TemperatureF,DewpointF,PressureIn,WindDirection,WindDirectionDegrees,WindSpeedMPH,WindSpeedGustMPH,Humidity,HourlyPrecipIn,Conditions,Clouds,dailyrainin,SolarRadiationWatts/m^2,SoftwareType,DateUTC
2013-11-07 00:11:00,38.0,21.0,-100.00,South,181,0.0,0.0,50,0.00,,,0.00,0.000000,,2013-11-07 08:11:00,
2013-11-07 00:22:00,38.0,21.0,-100.00,South,181,0.0,0.0,50,0.00,,,0.00,0.000000,,2013-11-07 08:22:00,
2013-11-07 00:32:00,38.0,21.0,-100.00,South,181,0.0,0.0,50,0.00,,,0.00,0.000000,,2013-11-07 08:32:00,
2013-11-07 00:42:00,38.0,21.0,-100.00,South,181,0.0,0.0,50,0.00,,,0.00,0.000000,,2013-11-07 08:42:00,
2013-11-07 01:21:00,37.0,20.0,-100.00,WSW,257,0.0,5.0,49,0.00,,,0.00,0.000000,,2013-11-07 09:21:00,
2013-11-07 01:33:00,37.0,20.0,-100.00,WSW,257,0.0,5.0,49,0.00,,,0.00,0.000000,,2013-11-07 09:33:00,
2013-11-07 01:42:00,37.0,20.0,-100.00,WSW,257,0.0,5.0,49,0.00,,,0.00,0.000000,,2013-11-07 09:42:00,
2013-11-07 02:13:00,37.0,20.0,-100.00,SSW,213,0.0,4.0,49,0.00,,,0.00,0.000000,,2013-11-07 10:13:00,
2013-11-07 02:23:00,37.0,20.0,-100.00,SSW,213,0.0,4.0,49,0.00,,,0.00,0.000000,,2013-11-07 10:23:00,
2013-11-07 02:32:00,37.0,20.0,-100.00,SSW,213,0.0,4.0,49,0.00,,,0.00,0.000000,,2013-11-07 10:32:00,
2013-11-07 02:42:00,37.0,20.0,-100.00,SSW,213,0.0,4.0,49,0.00,,,0.00,0.000000,,2013-11-07 10:42:00,
2013-11-07 03:11:00,37.0,20.0,-100.00,West,273,0.0,0.0,49,0.00,,,0.00,0.000000,,2013-11-07 11:11:00,
2013-11-07 03:22:00,37.0,20.0,-100.00,West,273,0.0,0.0,49,0.00,,,0.00,0.000000,,2013-11-07 11:22:00,
2013-11-07 03:42:00,37.0,20.0,-100.00,West,273,0.0,0.0,49,0.00,,,0.00,0.000000,,2013-11-07 11:42:00,
2013-11-07 04:12:00,36.0,19.0,-100.00,South,182,1.0,4.0,50,0.00,,,0.00,0.000000,,2013-11-07 12:12:00,
2013-11-07 04:22:00,36.0,19.0,-100.00,South,182,1.0,4.0,50,0.00,,,0.00,0.000000,,2013-11-07 12:22:00,
2013-11-07 04:32:00,36.0,19.0,-100.00,South,182,1.0,4.0,50,0.00,,,0.00,0.000000,,2013-11-07 12:32:00,
2013-11-07 04:42:00,36.0,19.0,-100.00,South,182,1.0,4.0,50,0.00,,,0.00,0.000000,,2013-11-07 12:42:00,
2013-11-07 05:12:00,38.0,20.0,-100.00,South,181,0.0,6.0,47,0.00,,,0.00,0.000000,,2013-11-07 13:12:00,
2013-11-07 05:21:00,38.0,20.0,-100.00,South,181,0.0,6.0,47,0.00,,,0.00,0.000000,,2013-11-07 13:21:00,
2013-11-07 05:32:00,38.0,20.0,-100.00,South,181,0.0,6.0,47,0.00,,,0.00,0.000000,,2013-11-07 13:32:00,
2013-11-07 05:42:00,38.0,20.0,-100.00,South,181,0.0,6.0,47,0.00,,,0.00,0.000000,,2013-11-07 13:42:00,
2013-11-07 06:11:00,40.0,16.0,-100.00,SSE,159,1.0,8.0,38,0.00,,,0.00,0.000000,,2013-11-07 14:11:00,
2013-11-07 06:22:00,40.0,16.0,-100.00,SSE,159,1.0,8.0,38,0.00,,,0.00,0.000000,,2013-11-07 14:22:00,
2013-11-07 06:32:00,40.0,16.0,-100.00,SSE,159,1.0,8.0,38,0.00,,,0.00,0.000000,,2013-11-07 14:32:00,
2013-11-07 06:42:00,40.0,16.0,-100.00,SSE,159,1.0,8.0,38,0.00,,,0.00,0.000000,,2013-11-07 14:42:00,
2013-11-07 07:11:00,50.0,12.0,-100.00,SSW,208,5.0,14.0,21,0.00,,,0.00,1.000000,,2013-11-07 15:11:00,
2013-11-07 08:13:00,43.0,16.0,-100.00,SE,141,3.0,11.0,33,-99.99,,,0.00,39.000000,,2013-11-07 16:13:00,
2013-11-07 08:23:00,43.0,16.0,-100.00,SE,141,3.0,11.0,33,-99.99,,,0.00,39.000000,,2013-11-07 16:23:00,
2013-11-07 08:33:00,43.0,16.0,-100.00,SE,141,3.0,11.0,33,-99.99,,,0.00,39.000000,,2013-11-07 16:33:00,
2013-11-07 08:42:00,43.0,16.0,-100.00,SE,141,3.0,11.0,33,-99.99,,,0.00,39.000000,,2013-11-07 16:42:00,
2013-11-07 09:12:00,48.0,17.0,-100.00,WNW,289,2.0,8.0,29,0.00,,,-99.99,118.000000,,2013-11-07 17:12:00,
2013-11-07 09:22:00,48.0,17.0,-100.00,WNW,289,2.0,8.0,29,0.00,,,-99.99,118.000000,,2013-11-07 17:22:00,
2013-11-07 09:33:00,48.0,17.0,-100.00,WNW,289,2.0,8.0,29,0.00,,,-99.99,118.000000,,2013-11-07 17:33:00,
2013-11-07 09:42:00,48.0,17.0,-100.00,WNW,289,2.0,8.0,29,0.00,,,-99.99,118.000000,,2013-11-07 17:42:00,
2013-11-07 10:23:00,51.0,20.0,-100.00,SE,126,5.0,9.0,29,0.00,,,0.00,166.000000,,2013-11-07 18:23:00,
2013-11-07 10:32:00,51.0,20.0,-100.00,SE,126,5.0,9.0,29,0.00,,,0.00,166.000000,,2013-11-07 18:32:00,
2013-11-07 10:42:00,51.0,20.0,-100.00,SE,126,5.0,9.0,29,0.00,,,0.00,166.000000,,2013-11-07 18:42:00,
2013-11-07 11:21:00,60.0,12.0,-100.00,SW,230,9.0,25.0,15,0.00,,,-99.99,244.000000,,2013-11-07 19:21:00,
2013-11-07 11:32:00,60.0,12.0,-100.00,SW,230,9.0,25.0,15,0.00,,,-99.99,244.000000,,2013-11-07 19:32:00,
2013-11-07 11:42:00,60.0,12.0,-100.00,SW,230,9.0,25.0,15,0.00,,,-99.99,244.000000,,2013-11-07 19:42:00,
2013-11-07 13:43:00,65.0,9.0,-100.00,SW,224,9.0,27.0,11,0.00,,,0.00,874.000000,,2013-11-07 21:43:00,
2013-11-07 14:23:00,64.0,10.0,-100.00,NNW,329,9.0,21.0,12,0.00,,,0.00,681.000000,,2013-11-07 22:23:00,
2013-11-07 14:33:00,64.0,10.0,-100.00,NNW,329,9.0,21.0,12,0.00,,,0.00,681.000000,,2013-11-07 22:33:00,
2013-11-07 14:43:00,64.0,10.0,-100.00,NNW,329,9.0,21.0,12,0.00,,,0.00,681.000000,,2013-11-07 22:43:00,
2013-11-07 15:22:00,64.0,12.0,-100.00,SW,218,9.0,23.0,13,0.00,,,0.00,497.000000,,2013-11-07 23:22:00,
2013-11-07 15:34:00,64.0,12.0,-100.00,SW,218,9.0,23.0,13,0.00,,,0.00,497.000000,,2013-11-07 23:34:00,
2013-11-07 15:43:00,64.0,12.0,-100.00,SW,218,9.0,23.0,13,0.00,,,0.00,497.000000,,2013-11-07 23:43:00,
2013-11-07 16:22:00,60.0,11.0,-100.00,SSW,211,8.0,19.0,14,0.00,,,0.00,303.000000,,2013-11-08 00:22:00,
2013-11-07 16:32:00,60.0,11.0,-100.00,SSW,211,8.0,19.0,14,0.00,,,0.00,303.000000,,2013-11-08 00:32:00,
2013-11-07 16:42:00,60.0,11.0,-100.00,SSW,211,8.0,19.0,14,0.00,,,0.00,303.000000,,2013-11-08 00:42:00,
2013-11-07 17:12:00,57.0,13.0,-100.00,SW,229,4.0,15.0,17,0.00,,,0.00,92.000000,,2013-11-08 01:12:00,
2013-11-07 17:22:00,57.0,13.0,-100.00,SW,229,4.0,15.0,17,0.00,,,0.00,92.000000,,2013-11-08 01:22:00,
2013-11-07 17:32:00,57.0,13.0,-100.00,SW,229,4.0,15.0,17,0.00,,,0.00,92.000000,,2013-11-08 01:32:00,
2013-11-07 17:42:00,57.0,13.0,-100.00,SW,229,4.0,15.0,17,0.00,,,0.00,92.000000,,2013-11-08 01:42:00,
2013-11-07 18:12:00,53.0,12.0,-100.00,SW,231,4.0,14.0,19,0.00,,,0.00,2.000000,,2013-11-08 02:12:00,
2013-11-07 18:21:00,53.0,12.0,-100.00,SW,231,4.0,14.0,19,0.00,,,0.00,2.000000,,2013-11-08 02:21:00,
2013-11-07 18:32:00,53.0,12.0,-100.00,SW,231,4.0,14.0,19,0.00,,,0.00,2.000000,,2013-11-08 02:32:00,
2013-11-07 18:42:00,53.0,12.0,-100.00,SW,231,4.0,14.0,19,0.00,,,0.00,2.000000,,2013-11-08 02:42:00,
2013-11-07 19:11:00,52.0,13.0,-100.00,WSW,243,1.0,12.0,21,0.00,,,0.00,0.000000,,2013-11-08 03:11:00,
2013-11-07 19:21:00,52.0,13.0,-100.00,WSW,243,1.0,12.0,21,0.00,,,0.00,0.000000,,2013-11-08 03:21:00,
2013-11-07 19:34:00,52.0,13.0,-100.00,WSW,243,1.0,12.0,21,0.00,,,0.00,0.000000,,2013-11-08 03:34:00,
2013-11-07 19:44:00,52.0,13.0,-100.00,WSW,243,1.0,12.0,21,0.00,,,0.00,0.000000,,2013-11-08 03:44:00,
2013-11-07 20:13:00,49.0,12.0,-100.00,SW,226,4.0,11.0,22,0.00,,,0.00,0.000000,,2013-11-08 04:13:00,
2013-11-07 20:23:00,49.0,12.0,-100.00,SW,226,4.0,11.0,22,0.00,,,0.00,0.000000,,2013-11-08 04:23:00,
2013-11-07 20:34:00,49.0,12.0,-100.00,SW,226,4.0,11.0,22,0.00,,,0.00,0.000000,,2013-11-08 04:34:00,
2013-11-07 20:43:00,49.0,12.0,-100.00,SW,226,4.0,11.0,22,0.00,,,0.00,0.000000,,2013-11-08 04:43:00,
2013-11-07 21:13:00,49.0,12.0,-100.00,SW,236,3.0,17.0,22,0.00,,,0.00,0.000000,,2013-11-08 05:13:00,
2013-11-07 21:23:00,49.0,12.0,-100.00,SW,236,3.0,17.0,22,0.00,,,0.00,0.000000,,2013-11-08 05:23:00,
2013-11-07 21:34:00,49.0,12.0,-100.00,SW,236,3.0,17.0,22,0.00,,,0.00,0.000000,,2013-11-08 05:34:00,
2013-11-07 21:43:00,49.0,12.0,-100.00,SW,236,3.0,17.0,22,0.00,,,0.00,0.000000,,2013-11-08 05:43:00,
2013-11-07 22:13:00,46.0,10.0,-100.00,SSE,157,0.0,16.0,23,0.00,,,0.00,0.000000,,2013-11-08 06:13:00,
2013-11-07 22:23:00,46.0,10.0,-100.00,SSE,157,0.0,16.0,23,0.00,,,0.00,0.000000,,2013-11-08 06:23:00,
2013-11-07 22:32:00,46.0,10.0,-100.00,SSE,157,0.0,16.0,23,0.00,,,0.00,0.000000,,2013-11-08 06:32:00,
2013-11-07 23:11:00,50.0,12.0,-100.00,SW,226,3.0,13.0,21,-99.99,,,0.00,0.000000,,2013-11-08 07:11:00,
2013-11-07 23:21:00,50.0,12.0,-100.00,SW,226,3.0,13.0,21,-99.99,,,0.00,0.000000,,2013-11-08 07:21:00,
2013-11-07 23:32:00,50.0,12.0,-100.00,SW,226,3.0,13.0,21,-99.99,,,0.00,0.000000,,2013-11-08 07:32:00,
2013-11-07 23:42:00,50.0,12.0,-100.00,SW,226,3.0,13.0,21,-99.99,,,0.00,0.000000,,2013-11-08 07:42:00,